Time,TemperatureF,DewpointF,PressureIn,WindDirection,WindDirectionDegrees,WindSpeedMPH,WindSpeedGustMPH,Humidity,HourlyPrecipIn,Conditions,Clouds,dailyrainin,SolarRadiationWatts/m^2,SoftwareType,DateUTC
2013-01-25 00:05:00,44.4,38.3,29.45,North,356,7.0,12.0,79,0.00,RA,,0.00,0.0,WeatherDisplay:10.37,2013-01-24 23:05:00,
2013-01-25 00:10:00,44.3,38.2,29.45,North,1,5.0,9.0,79,0.00,,,0.00,0.0,WeatherDisplay:10.37,2013-01-24 23:10:00,
2013-01-25 00:15:00,44.2,38.1,29.45,NNE,14,5.0,10.0,79,0.00,,,0.00,0.0,WeatherDisplay:10.37,2013-01-24 23:15:00,
2013-01-25 00:20:00,44.1,38.0,29.45,NNE,19,6.0,10.0,79,0.00,,,0.00,0.0,WeatherDisplay:10.37,2013-01-24 23:20:00,
2013-01-25 00:25:00,44.0,37.9,29.45,NNE,21,8.0,14.0,79,0.00,,,0.00,0.0,WeatherDisplay:10.37,2013-01-24 23:25:00,
2013-01-25 00:30:00,44.0,37.9,29.45,NNE,12,8.0,13.0,79,0.00,,,0.00,0.0,WeatherDisplay:10.37,2013-01-24 23:30:00,
2013-01-25 00:35:00,43.9,38.1,29.44,North,8,7.0,12.0,80,0.00,,,0.00,0.0,WeatherDisplay:10.37,2013-01-24 23:35:00,
2013-01-25 00:40:00,43.9,37.8,29.44,NNE,22,9.0,16.0,79,0.00,,,0.00,0.0,WeatherDisplay:10.37,2013-01-24 23:40:00,
2013-01-25 00:45:00,43.9,38.1,29.44,NNE,25,9.0,15.0,80,0.00,,,0.00,0.0,WeatherDisplay:10.37,2013-01-24 23:45:00,
2013-01-25 00:50:00,43.8,37.7,29.43,NNE,19,8.0,13.0,79,0.00,,,0.00,0.0,WeatherDisplay:10.37,2013-01-24 23:50:00,
2013-01-25 00:55:00,43.8,38.0,29.43,North,9,5.0,13.0,80,0.00,,,0.00,0.0,WeatherDisplay:10.37,2013-01-24 23:55:00,
2013-01-25 01:00:00,43.7,37.9,29.43,NNE,12,7.0,12.0,80,0.00,,,0.00,0.0,WeatherDisplay:10.37,2013-01-25 00:00:00,
2013-01-25 01:05:00,43.7,37.9,29.43,North,8,8.0,14.0,80,0.00,,,0.00,0.0,WeatherDisplay:10.37,2013-01-25 00:05:00,
2013-01-25 01:10:00,43.7,37.9,29.43,North,6,8.0,14.0,80,0.00,,,0.00,0.0,WeatherDisplay:10.37,2013-01-25 00:10:00,
2013-01-25 01:15:00,43.6,37.8,29.43,North,4,8.0,13.0,80,0.00,,,0.00,0.0,WeatherDisplay:10.37,2013-01-25 00:15:00,
2013-01-25 01:20:00,43.7,37.9,29.42,North,2,12.0,15.0,80,0.00,,,0.00,0.0,WeatherDisplay:10.37,2013-01-25 00:20:00,
2013-01-25 01:25:00,43.6,37.8,29.42,NNE,15,8.0,16.0,80,0.00,,,0.00,0.0,WeatherDisplay:10.37,2013-01-25 00:25:00,
2013-01-25 01:30:00,43.5,37.7,29.42,NNE,18,6.0,10.0,80,0.00,,,0.00,0.0,WeatherDisplay:10.37,2013-01-25 00:30:00,
2013-01-25 01:35:00,43.5,38.1,29.42,NNE,20,7.0,12.0,81,0.00,,,0.00,0.0,WeatherDisplay:10.37,2013-01-25 00:35:00,
2013-01-25 01:40:00,43.4,38.0,29.42,NNE,24,7.0,12.0,81,0.00,,,0.00,0.0,WeatherDisplay:10.37,2013-01-25 00:40:00,
2013-01-25 01:45:00,43.4,38.0,29.42,NNE,21,9.0,12.0,81,0.00,,,0.00,0.0,WeatherDisplay:10.37,2013-01-25 00:45:00,
2013-01-25 01:50:00,43.4,38.0,29.42,NNE,21,7.0,14.0,81,0.00,,,0.00,0.0,WeatherDisplay:10.37,2013-01-25 00:50:00,
2013-01-25 01:55:00,43.4,38.0,29.42,NNE,21,5.0,12.0,81,0.00,,,0.00,0.0,WeatherDisplay:10.37,2013-01-25 00:55:00,
2013-01-25 02:00:00,43.3,37.9,29.42,NNE,15,3.0,10.0,81,0.00,,,0.00,0.0,WeatherDisplay:10.37,2013-01-25 01:00:00,
2013-01-25 02:05:00,43.2,37.8,29.42,NNE,14,3.0,6.0,81,0.00,,,0.00,0.0,WeatherDisplay:10.37,2013-01-25 01:05:00,
2013-01-25 02:10:00,43.0,37.6,29.42,NNE,26,3.0,6.0,81,0.00,,,0.00,0.0,WeatherDisplay:10.37,2013-01-25 01:10:00,
2013-01-25 02:15:00,42.9,37.8,29.42,NE,36,5.0,10.0,82,0.00,,,0.00,0.0,WeatherDisplay:10.37,2013-01-25 01:15:00,
2013-01-25 02:20:00,43.0,37.9,29.42,NNE,30,5.0,10.0,82,0.00,,,0.00,0.0,WeatherDisplay:10.37,2013-01-25 01:20:00,
2013-01-25 02:25:00,43.0,37.9,29.42,NNE,21,3.0,8.0,82,0.00,,,0.00,0.0,WeatherDisplay:10.37,2013-01-25 01:25:00,
2013-01-25 02:30:00,43.0,37.9,29.42,NNE,22,7.0,9.0,82,0.00,,,0.00,0.0,WeatherDisplay:10.37,2013-01-25 01:30:00,
2013-01-25 02:40:00,42.9,37.8,29.42,NNE,19,5.0,8.0,82,0.00,,,0.00,0.0,WeatherDisplay:10.37,2013-01-25 01:40:00,
2013-01-25 02:45:00,42.8,37.7,29.42,NNE,15,2.0,6.0,82,0.00,,,0.00,0.0,WeatherDisplay:10.37,2013-01-25 01:45:00,
2013-01-25 02:50:00,42.8,37.7,29.42,NNE,16,1.0,7.0,82,0.00,,,0.00,0.0,WeatherDisplay:10.37,2013-01-25 01:50:00,
2013-01-25 02:55:00,42.7,37.9,29.42,NNE,21,2.0,5.0,83,0.00,,,0.00,0.0,WeatherDisplay:10.37,2013-01-25 01:55:00,
2013-01-25 03:00:00,42.6,37.8,29.42,NNE,24,2.0,5.0,83,0.00,,,0.00,0.0,WeatherDisplay:10.37,2013-01-25 02:00:00,
2013-01-25 03:05:00,42.6,37.8,29.42,NNE,24,3.0,6.0,83,0.00,,,0.00,0.0,WeatherDisplay:10.37,2013-01-25 02:05:00,
2013-01-25 03:10:00,42.5,37.7,29.42,NNE,24,3.0,6.0,83,0.00,,,0.00,0.0,WeatherDisplay:10.37,2013-01-25 02:10:00,
2013-01-25 03:15:00,42.4,37.6,29.42,NNE,24,2.0,4.0,83,0.00,,,0.00,0.0,WeatherDisplay:10.37,2013-01-25 02:15:00,
2013-01-25 03:25:00,42.2,37.7,29.42,NNE,23,2.0,5.0,84,0.00,,,0.00,0.0,WeatherDisplay:10.37,2013-01-25 02:25:00,
2013-01-25 03:30:00,42.3,37.8,29.42,NNE,20,2.0,6.0,84,0.00,,,0.00,0.0,WeatherDisplay:10.37,2013-01-25 02:30:00,
2013-01-25 03:35:00,42.2,37.7,29.42,NNE,19,2.0,5.0,84,0.00,,,0.00,0.0,WeatherDisplay:10.37,2013-01-25 02:35:00,
2013-01-25 03:40:00,42.2,37.7,29.42,NNE,19,3.0,6.0,84,0.00,,,0.00,0.0,WeatherDisplay:10.37,2013-01-25 02:40:00,
2013-01-25 03:45:00,42.0,37.5,29.42,NNE,20,5.0,5.0,84,0.00,,,0.00,0.0,WeatherDisplay:10.37,2013-01-25 02:45:00,
2013-01-25 03:50:00,41.6,37.2,29.42,NNE,21,1.0,5.0,84,0.00,,,0.00,0.0,WeatherDisplay:10.37,2013-01-25 02:50:00,
2013-01-25 03:55:00,41.3,37.1,29.43,NNE,22,2.0,4.0,85,0.00,,,0.00,0.0,WeatherDisplay:10.37,2013-01-25 02:55:00,
2013-01-25 04:05:00,40.9,36.8,29.42,NNE,22,2.0,4.0,85,0.00,,,0.00,0.0,WeatherDisplay:10.37,2013-01-25 03:05:00,
2013-01-25 04:10:00,41.1,37.2,29.42,NNE,21,3.0,8.0,86,0.00,,,0.00,0.0,WeatherDisplay:10.37,2013-01-25 03:10:00,
2013-01-25 04:15:00,41.2,37.3,29.42,NNE,21,5.0,8.0,86,0.00,,,0.00,0.0,WeatherDisplay:10.37,2013-01-25 03:15:00,
2013-01-25 04:25:00,41.2,37.3,29.42,NNE,24,3.0,7.0,86,0.00,,,0.00,0.0,WeatherDisplay:10.37,2013-01-25 03:25:00,
2013-01-25 04:30:00,41.1,37.3,29.42,NNE,32,5.0,7.0,86,0.00,,,0.00,0.0,WeatherDisplay:10.37,2013-01-25 03:30:00,
2013-01-25 04:35:00,41.0,37.1,29.42,NE,42,5.0,6.0,86,0.00,,,0.00,0.0,WeatherDisplay:10.37,2013-01-25 03:35:00,
2013-01-25 04:40:00,41.0,37.1,29.42,NE,46,6.0,8.0,86,0.00,,,0.00,0.0,WeatherDisplay:10.37,2013-01-25 03:40:00,
2013-01-25 04:45:00,40.9,37.3,29.43,NE,47,5.0,8.0,87,0.00,,,0.00,0.0,WeatherDisplay:10.37,2013-01-25 03:45:00,
2013-01-25 04:50:00,40.8,37.2,29.42,NE,46,6.0,8.0,87,0.00,,,0.00,0.0,WeatherDisplay:10.37,2013-01-25 03:50:00,
2013-01-25 04:55:00,40.9,37.3,29.42,NE,45,7.0,9.0,87,0.00,,,0.00,0.0,WeatherDisplay:10.37,2013-01-25 03:55:00,
2013-01-25 05:00:00,40.8,37.2,29.42,NE,47,7.0,10.0,87,0.00,,,0.00,0.0,WeatherDisplay:10.37,2013-01-25 04:00:00,
2013-01-25 05:05:00,40.8,37.2,29.42,NE,47,6.0,10.0,87,0.00,,,0.00,0.0,WeatherDisplay:10.37,2013-01-25 04:05:00,
2013-01-25 05:10:00,40.7,37.1,29.42,NE,50,8.0,10.0,87,0.00,,,0.00,0.0,WeatherDisplay:10.37,2013-01-25 04:10:00,
2013-01-25 05:15:00,40.5,36.9,29.42,NE,56,8.0,10.0,87,0.00,,,0.00,0.0,WeatherDisplay:10.37,2013-01-25 04:15:00,
2013-01-25 05:20:00,40.2,36.6,29.42,ENE,59,6.0,12.0,87,0.00,,,0.00,0.0,WeatherDisplay:10.37,2013-01-25 04:20:00,
2013-01-25 05:25:00,40.1,36.5,29.42,ENE,57,8.0,12.0,87,0.00,,,0.00,0.0,WeatherDisplay:10.37,2013-01-25 04:25:00,
2013-01-25 05:30:00,40.2,36.9,29.43,NE,51,8.0,12.0,88,0.00,,,0.00,0.0,WeatherDisplay:10.37,2013-01-25 04:30:00,
2013-01-25 05:35:00,40.2,36.9,29.43,NE,50,8.0,12.0,88,0.00,,,0.00,0.0,WeatherDisplay:10.37,2013-01-25 04:35:00,
2013-01-25 05:40:00,40.3,37.0,29.43,NE,49,6.0,10.0,88,0.00,,,0.00,0.0,WeatherDisplay:10.37,2013-01-25 04:40:00,
2013-01-25 05:45:00,40.3,37.1,29.43,NE,52,8.0,12.0,88,0.00,,,0.00,0.0,WeatherDisplay:10.37,2013-01-25 04:45:00,
2013-01-25 05:50:00,40.1,36.9,29.44,NE,56,7.0,12.0,88,0.00,,,0.00,0.0,WeatherDisplay:10.37,2013-01-25 04:50:00,
2013-01-25 05:55:00,39.9,36.6,29.44,NE,54,6.0,9.0,88,0.00,,,0.00,0.0,WeatherDisplay:10.37,2013-01-25 04:55:00,
2013-01-25 06:05:00,39.9,36.6,29.44,NE,51,6.0,9.0,88,0.00,OVC,,0.00,0.0,WeatherDisplay:10.37,2013-01-25 05:05:00,
2013-01-25 06:10:00,39.6,36.3,29.45,NE,55,9.0,12.0,88,0.00,,,0.00,0.0,WeatherDisplay:10.37,2013-01-25 05:10:00,
2013-01-25 06:15:00,39.6,36.3,29.45,NE,49,8.0,12.0,88,0.00,,,0.00,0.0,WeatherDisplay:10.37,2013-01-25 05:15:00,
2013-01-25 06:25:00,39.8,36.8,29.45,NE,46,7.0,12.0,89,0.00,,,0.00,0.0,WeatherDisplay:10.37,2013-01-25 05:25:00,
2013-01-25 06:30:00,39.8,36.8,29.45,NE,47,7.0,12.0,89,0.00,,,0.00,0.0,WeatherDisplay:10.37,2013-01-25 05:30:00,
2013-01-25 06:40:00,39.9,36.9,29.46,NE,50,8.0,13.0,89,0.00,,,0.00,0.0,WeatherDisplay:10.37,2013-01-25 05:40:00,
2013-01-25 06:45:00,39.9,36.9,29.46,NE,49,8.0,12.0,89,0.00,,,0.00,0.0,WeatherDisplay:10.37,2013-01-25 05:45:00,
2013-01-25 06:55:00,40.1,37.1,29.46,NE,45,8.0,12.0,89,0.00,,,0.00,0.0,WeatherDisplay:10.37,2013-01-25 05:55:00,
2013-01-25 07:00:00,40.1,36.8,29.46,NE,42,8.0,12.0,88,0.00,OVC,,0.00,0.0,WeatherDisplay:10.37,2013-01-25 06:00:00,
2013-01-25 07:10:00,40.3,37.0,29.47,NE,45,8.0,12.0,88,0.00,OVC,,0.00,0.0,WeatherDisplay:10.37,2013-01-25 06:10:00,
2013-01-25 07:15:00,40.3,37.0,29.47,NE,45,8.0,12.0,88,0.00,OVC,,0.00,0.0,WeatherDisplay:10.37,2013-01-25 06:15:00,
2013-01-25 07:25:00,40.3,37.0,29.47,NE,43,7.0,12.0,88,0.00,OVC,,0.00,0.0,WeatherDisplay:10.37,2013-01-25 06:25:00,
2013-01-25 07:30:00,40.3,37.1,29.47,NE,43,7.0,10.0,88,0.00,OVC,,0.00,0.0,WeatherDisplay:10.37,2013-01-25 06:30:00,
2013-01-25 07:35:00,40.4,37.1,29.47,NE,34,5.0,9.0,88,0.00,OVC,,0.00,5.0,WeatherDisplay:10.37,2013-01-25 06:35:00,
2013-01-25 07:45:00,40.7,37.4,29.48,NNE,27,7.0,10.0,88,0.00,BKN,,0.00,12.0,WeatherDisplay:10.37,2013-01-25 06:45:00,
2013-01-25 07:50:00,40.8,37.2,29.48,NNE,25,6.0,10.0,87,0.00,BKN,,0.00,18.0,WeatherDisplay:10.37,2013-01-25 06:50:00,
2013-01-25 07:55:00,40.8,37.2,29.48,NNE,32,5.0,8.0,87,0.00,BKN,,0.00,23.0,WeatherDisplay:10.37,2013-01-25 06:55:00,
2013-01-25 08:00:00,40.8,37.3,29.48,NE,40,6.0,8.0,87,0.00,BKN,,0.00,28.0,WeatherDisplay:10.37,2013-01-25 07:00:00,
2013-01-25 08:05:00,40.9,37.3,29.48,NE,42,5.0,8.0,87,0.00,BKN,,0.00,46.0,WeatherDisplay:10.37,2013-01-25 07:05:00,
2013-01-25 08:10:00,41.1,37.5,29.49,NE,42,6.0,9.0,87,0.00,BKN,,0.00,44.0,WeatherDisplay:10.37,2013-01-25 07:10:00,
2013-01-25 08:15:00,41.2,37.6,29.48,NE,43,6.0,7.0,87,0.00,BKN,,0.00,49.0,WeatherDisplay:10.37,2013-01-25 07:15:00,
2013-01-25 08:20:00,41.3,37.7,29.48,NE,42,6.0,9.0,87,0.00,BKN,,0.00,51.0,WeatherDisplay:10.37,2013-01-25 07:20:00,
2013-01-25 08:25:00,41.4,37.8,29.48,NE,43,7.0,9.0,87,0.00,BKN,,0.00,58.0,WeatherDisplay:10.37,2013-01-25 07:25:00,
2013-01-25 08:30:00,41.5,37.9,29.48,NE,43,6.0,9.0,87,0.00,BKN,,0.00,63.0,WeatherDisplay:10.37,2013-01-25 07:30:00,
2013-01-25 08:35:00,41.7,38.1,29.48,NE,42,6.0,8.0,87,0.00,BKN,,0.00,70.0,WeatherDisplay:10.37,2013-01-25 07:35:00,
2013-01-25 08:40:00,41.9,38.0,29.48,NE,40,6.0,9.0,86,0.00,BKN,,0.00,83.0,WeatherDisplay:10.37,2013-01-25 07:40:00,
2013-01-25 08:45:00,42.2,38.3,29.49,NE,37,3.0,9.0,86,0.00,BKN,,0.00,97.0,WeatherDisplay:10.37,2013-01-25 07:45:00,
2013-01-25 08:50:00,42.4,38.5,29.49,NE,34,5.0,8.0,86,0.00,BKN,,0.00,100.0,WeatherDisplay:10.37,2013-01-25 07:50:00,
2013-01-25 08:55:00,42.6,38.7,29.49,NNE,28,2.0,8.0,86,0.00,BKN,,0.00,104.0,WeatherDisplay:10.37,2013-01-25 07:55:00,
2013-01-25 09:05:00,43.1,38.9,29.49,NNE,31,3.0,7.0,85,0.00,BKN,,0.00,111.0,WeatherDisplay:10.37,2013-01-25 08:05:00,
2013-01-25 09:10:00,43.2,38.7,29.49,NE,35,5.0,8.0,84,0.00,BKN,,0.00,105.0,WeatherDisplay:10.37,2013-01-25 08:10:00,
2013-01-25 09:15:00,43.2,38.7,29.49,NE,41,5.0,7.0,84,0.00,BKN,,0.00,148.0,WeatherDisplay:10.37,2013-01-25 08:15:00,
2013-01-25 09:20:00,43.5,39.0,29.49,NE,43,5.0,7.0,84,0.00,BKN,,0.00,113.0,WeatherDisplay:10.37,2013-01-25 08:20:00,
2013-01-25 09:25:00,43.5,39.0,29.49,NE,43,3.0,7.0,84,0.00,BKN,,0.00,98.0,WeatherDisplay:10.37,2013-01-25 08:25:00,
2013-01-25 09:30:00,43.6,38.8,29.49,NE,39,2.0,8.0,83,0.00,BKN,,0.00,97.0,WeatherDisplay:10.37,2013-01-25 08:30:00,
2013-01-25 09:35:00,43.7,39.2,29.50,NNE,33,3.0,6.0,84,0.00,BKN,,0.00,95.0,WeatherDisplay:10.37,2013-01-25 08:35:00,
2013-01-25 09:40:00,43.8,39.0,29.50,NNE,30,1.0,6.0,83,0.00,BKN,,0.00,79.0,WeatherDisplay:10.37,2013-01-25 08:40:00,
2013-01-25 09:45:00,43.9,39.0,29.50,NNE,25,2.0,5.0,83,0.00,BKN,,0.00,169.0,WeatherDisplay:10.37,2013-01-25 08:45:00,
2013-01-25 09:50:00,44.0,39.2,29.50,NNE,28,3.0,7.0,83,0.00,BKN,,0.00,160.0,WeatherDisplay:10.37,2013-01-25 08:50:00,
2013-01-25 09:55:00,44.3,39.1,29.50,NNE,28,3.0,7.0,82,0.00,BKN,,0.00,67.0,WeatherDisplay:10.37,2013-01-25 08:55:00,
2013-01-25 10:00:00,44.1,39.0,29.50,NE,39,5.0,8.0,82,0.00,BKN,,0.00,72.0,WeatherDisplay:10.37,2013-01-25 09:00:00,
2013-01-25 10:10:00,45.2,39.4,29.50,NE,45,7.0,10.0,80,0.00,FEW,,0.00,346.0,WeatherDisplay:10.37,2013-01-25 09:10:00,
2013-01-25 10:15:00,46.1,40.3,29.50,NE,40,2.0,7.0,80,0.00,CLR,,0.00,353.0,WeatherDisplay:10.37,2013-01-25 09:15:00,
2013-01-25 10:20:00,46.9,40.4,29.51,NE,41,6.0,9.0,78,0.00,CLR,,0.00,362.0,WeatherDisplay:10.37,2013-01-25 09:20:00,
2013-01-25 10:25:00,47.1,40.2,29.51,NE,45,6.0,12.0,77,0.00,CLR,,0.00,371.0,WeatherDisplay:10.37,2013-01-25 09:25:00,
2013-01-25 10:30:00,48.0,41.1,29.51,NNE,29,1.0,8.0,77,0.00,CLR,,0.00,381.0,WeatherDisplay:10.37,2013-01-25 09:30:00,
2013-01-25 10:35:00,48.5,40.9,29.51,NNE,23,6.0,10.0,75,0.00,CLR,,0.00,390.0,WeatherDisplay:10.37,2013-01-25 09:35:00,
2013-01-25 10:40:00,49.1,41.2,29.50,NNE,20,1.0,8.0,74,0.00,CLR,,0.00,399.0,WeatherDisplay:10.37,2013-01-25 09:40:00,
2013-01-25 10:45:00,49.3,40.3,29.50,North,8,9.0,14.0,71,0.00,CLR,,0.00,408.0,WeatherDisplay:10.37,2013-01-25 09:45:00,
2013-01-25 10:50:00,49.3,40.6,29.51,NNE,19,8.0,12.0,72,0.00,CLR,,0.00,417.0,WeatherDisplay:10.37,2013-01-25 09:50:00,
2013-01-25 10:55:00,49.8,40.7,29.50,North,11,7.0,9.0,71,0.00,CLR,,0.00,418.0,WeatherDisplay:10.37,2013-01-25 09:55:00,
2013-01-25 11:00:00,50.1,40.7,29.51,North,11,10.0,15.0,70,0.00,CLR,,0.00,432.0,WeatherDisplay:10.37,2013-01-25 10:00:00,
2013-01-25 11:05:00,50.5,40.3,29.51,NNE,21,10.0,18.0,68,0.00,CLR,,0.00,441.0,WeatherDisplay:10.37,2013-01-25 10:05:00,
2013-01-25 11:10:00,50.5,39.6,29.51,NNE,15,8.0,17.0,66,0.00,CLR,,0.00,446.0,WeatherDisplay:10.37,2013-01-25 10:10:00,
2013-01-25 11:15:00,50.2,38.9,29.51,NNE,14,12.0,20.0,65,0.00,CLR,,0.00,450.0,WeatherDisplay:10.37,2013-01-25 10:15:00,
2013-01-25 11:20:00,50.6,39.3,29.51,North,7,8.0,15.0,65,0.00,CLR,,0.00,459.0,WeatherDisplay:10.37,2013-01-25 10:20:00,
2013-01-25 11:25:00,50.9,39.2,29.51,North,2,10.0,20.0,64,0.00,CLR,,0.00,464.0,WeatherDisplay:10.37,2013-01-25 10:25:00,
2013-01-25 11:35:00,51.4,39.7,29.51,North,3,10.0,21.0,64,0.00,CLR,,0.00,473.0,WeatherDisplay:10.37,2013-01-25 10:35:00,
2013-01-25 11:40:00,51.9,40.1,29.51,North,3,9.0,18.0,64,0.00,CLR,,0.00,473.0,WeatherDisplay:10.37,2013-01-25 10:40:00,
2013-01-25 11:45:00,52.0,39.8,29.51,North,2,10.0,16.0,63,0.00,CLR,,0.00,478.0,WeatherDisplay:10.37,2013-01-25 10:45:00,
2013-01-25 11:50:00,51.9,39.7,29.51,North,357,12.0,20.0,63,0.00,CLR,,0.00,482.0,WeatherDisplay:10.37,2013-01-25 10:50:00,
2013-01-25 11:55:00,52.2,39.6,29.51,North,359,9.0,18.0,62,0.00,CLR,,0.00,485.0,WeatherDisplay:10.37,2013-01-25 10:55:00,
2013-01-25 12:05:00,51.9,39.7,29.51,North,6,12.0,20.0,63,0.00,CLR,,0.00,490.0,WeatherDisplay:10.37,2013-01-25 11:05:00,
2013-01-25 12:10:00,52.6,39.9,29.51,North,351,9.0,20.0,62,0.00,CLR,,0.00,490.0,WeatherDisplay:10.37,2013-01-25 11:10:00,
2013-01-25 12:15:00,52.6,39.5,29.51,NNW,346,10.0,17.0,61,0.00,CLR,,0.00,494.0,WeatherDisplay:10.37,2013-01-25 11:15:00,
2013-01-25 12:20:00,52.2,39.6,29.51,North,356,12.0,22.0,62,0.00,CLR,,0.00,492.0,WeatherDisplay:10.37,2013-01-25 11:20:00,
2013-01-25 12:25:00,52.3,39.6,29.51,North,357,12.0,20.0,62,0.00,CLR,,0.00,494.0,WeatherDisplay:10.37,2013-01-25 11:25:00,
2013-01-25 12:30:00,52.3,39.7,29.51,North,359,10.0,17.0,62,0.00,CLR,,0.00,497.0,WeatherDisplay:10.37,2013-01-25 11:30:00,
2013-01-25 12:35:00,52.0,39.0,29.50,North,349,14.0,22.0,61,0.00,CLR,,0.00,496.0,WeatherDisplay:10.37,2013-01-25 11:35:00,
2013-01-25 12:40:00,52.1,39.1,29.50,North,7,13.0,20.0,61,0.00,CLR,,0.00,499.0,WeatherDisplay:10.37,2013-01-25 11:40:00,
2013-01-25 12:45:00,52.3,39.2,29.50,NNE,13,15.0,22.0,61,0.00,CLR,,0.00,497.0,WeatherDisplay:10.37,2013-01-25 11:45:00,
2013-01-25 12:50:00,52.7,39.2,29.50,North,7,15.0,21.0,60,0.00,CLR,,0.00,496.0,WeatherDisplay:10.37,2013-01-25 11:50:00,
2013-01-25 13:00:00,52.8,39.3,29.50,NNE,29,12.0,24.0,60,0.00,CLR,,0.00,492.0,WeatherDisplay:10.37,2013-01-25 12:00:00,
2013-01-25 13:05:00,53.0,39.9,29.49,North,7,9.0,21.0,61,0.00,CLR,,0.00,490.0,WeatherDisplay:10.37,2013-01-25 12:05:00,
2013-01-25 13:10:00,53.0,39.5,29.49,North,5,12.0,20.0,60,0.00,CLR,,0.00,487.0,WeatherDisplay:10.37,2013-01-25 12:10:00,
2013-01-25 13:15:00,52.8,39.7,29.49,NNE,17,12.0,18.0,61,0.00,CLR,,0.00,482.0,WeatherDisplay:10.37,2013-01-25 12:15:00,
2013-01-25 13:20:00,52.8,39.3,29.49,NNE,13,10.0,23.0,60,0.00,CLR,,0.00,480.0,WeatherDisplay:10.37,2013-01-25 12:20:00,
2013-01-25 13:25:00,52.9,39.0,29.49,North,6,16.0,25.0,59,0.00,CLR,,0.00,476.0,WeatherDisplay:10.37,2013-01-25 12:25:00,
2013-01-25 13:30:00,52.9,39.0,29.49,North,359,12.0,23.0,59,0.00,CLR,,0.00,471.0,WeatherDisplay:10.37,2013-01-25 12:30:00,
2013-01-25 13:35:00,53.5,40.3,29.49,North,358,10.0,22.0,61,0.00,CLR,,0.00,466.0,WeatherDisplay:10.37,2013-01-25 12:35:00,
2013-01-25 13:40:00,53.0,39.0,29.49,North,360,13.0,21.0,59,0.00,CLR,,0.00,462.0,WeatherDisplay:10.37,2013-01-25 12:40:00,
2013-01-25 13:45:00,52.9,39.0,29.49,North,2,12.0,20.0,59,0.00,CLR,,0.00,457.0,WeatherDisplay:10.37,2013-01-25 12:45:00,
2013-01-25 13:50:00,53.3,39.3,29.49,North,9,10.0,21.0,59,0.00,CLR,,0.00,448.0,WeatherDisplay:10.37,2013-01-25 12:50:00,
2013-01-25 13:55:00,53.2,38.8,29.49,North,7,15.0,23.0,58,0.00,CLR,,0.00,445.0,WeatherDisplay:10.37,2013-01-25 12:55:00,
2013-01-25 14:00:00,53.2,38.8,29.49,North,3,10.0,24.0,58,0.00,CLR,,0.00,436.0,WeatherDisplay:10.37,2013-01-25 13:00:00,
2013-01-25 14:05:00,53.5,39.5,29.49,North,2,8.0,16.0,59,0.00,CLR,,0.00,429.0,WeatherDisplay:10.37,2013-01-25 13:05:00,
2013-01-25 14:10:00,53.8,39.3,29.49,North,358,9.0,16.0,58,0.00,CLR,,0.00,420.0,WeatherDisplay:10.37,2013-01-25 13:10:00,
2013-01-25 14:15:00,53.5,39.1,29.49,North,358,10.0,18.0,58,0.00,CLR,,0.00,413.0,WeatherDisplay:10.37,2013-01-25 13:15:00,
2013-01-25 14:20:00,53.9,39.4,29.49,North,359,15.0,20.0,58,0.00,CLR,,0.00,404.0,WeatherDisplay:10.37,2013-01-25 13:20:00,
2013-01-25 14:25:00,53.4,38.6,29.49,North,1,15.0,24.0,57,0.00,CLR,,0.00,396.0,WeatherDisplay:10.37,2013-01-25 13:25:00,
2013-01-25 14:30:00,53.3,38.9,29.49,North,355,15.0,24.0,58,0.00,CLR,,0.00,388.0,WeatherDisplay:10.37,2013-01-25 13:30:00,
2013-01-25 14:35:00,53.5,39.1,29.49,North,351,12.0,20.0,58,0.00,CLR,,0.00,378.0,WeatherDisplay:10.37,2013-01-25 13:35:00,
2013-01-25 14:40:00,53.7,38.8,29.49,North,0,12.0,20.0,57,0.00,CLR,,0.00,369.0,WeatherDisplay:10.37,2013-01-25 13:40:00,
2013-01-25 14:45:00,53.5,38.7,29.49,North,2,12.0,23.0,57,0.00,CLR,,0.00,360.0,WeatherDisplay:10.37,2013-01-25 13:45:00,
2013-01-25 14:55:00,53.2,38.8,29.49,North,360,14.0,20.0,58,0.00,CLR,,0.00,339.0,WeatherDisplay:10.37,2013-01-25 13:55:00,
2013-01-25 15:00:00,53.3,38.9,29.49,North,6,13.0,21.0,58,0.00,CLR,,0.00,332.0,WeatherDisplay:10.37,2013-01-25 14:00:00,
2013-01-25 15:05:00,53.0,38.6,29.50,North,358,10.0,23.0,58,0.00,CLR,,0.00,318.0,WeatherDisplay:10.37,2013-01-25 14:05:00,
2013-01-25 15:10:00,52.6,38.3,29.50,North,357,8.0,22.0,58,0.00,CLR,,0.00,308.0,WeatherDisplay:10.37,2013-01-25 14:10:00,
2013-01-25 15:15:00,52.6,38.2,29.50,North,354,12.0,25.0,58,0.00,CLR,,0.00,297.0,WeatherDisplay:10.37,2013-01-25 14:15:00,
2013-01-25 15:20:00,53.0,38.6,29.50,North,354,7.0,23.0,58,0.00,CLR,,0.00,283.0,WeatherDisplay:10.37,2013-01-25 14:20:00,
2013-01-25 15:25:00,52.8,38.4,29.50,North,357,12.0,20.0,58,0.00,CLR,,0.00,269.0,WeatherDisplay:10.37,2013-01-25 14:25:00,
2013-01-25 15:30:00,52.5,38.1,29.50,North,9,10.0,17.0,58,0.00,CLR,,0.00,258.0,WeatherDisplay:10.37,2013-01-25 14:30:00,
2013-01-25 15:35:00,52.6,38.2,29.50,North,7,14.0,23.0,58,0.00,CLR,,0.00,246.0,WeatherDisplay:10.37,2013-01-25 14:35:00,
2013-01-25 15:40:00,52.8,38.4,29.50,North,6,6.0,14.0,58,0.00,CLR,,0.00,230.0,WeatherDisplay:10.37,2013-01-25 14:40:00,
2013-01-25 15:45:00,53.2,38.8,29.50,North,356,7.0,10.0,58,0.00,CLR,,0.00,218.0,WeatherDisplay:10.37,2013-01-25 14:45:00,
2013-01-25 15:50:00,53.4,38.5,29.50,NNW,344,10.0,16.0,57,0.00,CLR,,0.00,197.0,WeatherDisplay:10.37,2013-01-25 14:50:00,
2013-01-25 15:55:00,53.0,38.2,29.51,North,355,10.0,14.0,57,0.00,CLR,,0.00,181.0,WeatherDisplay:10.37,2013-01-25 14:55:00,
2013-01-25 16:00:00,52.9,38.1,29.51,North,357,8.0,14.0,57,0.00,CLR,,0.00,167.0,WeatherDisplay:10.37,2013-01-25 15:00:00,
2013-01-25 16:05:00,52.7,37.9,29.51,North,3,8.0,15.0,57,0.00,CLR,,0.00,151.0,WeatherDisplay:10.37,2013-01-25 15:05:00,
2013-01-25 16:10:00,52.3,37.1,29.51,North,358,16.0,25.0,56,0.00,SCT,,0.00,137.0,WeatherDisplay:10.37,2013-01-25 15:10:00,
2013-01-25 16:15:00,52.1,37.4,29.51,North,357,10.0,24.0,57,0.00,BKN,,0.00,123.0,WeatherDisplay:10.37,2013-01-25 15:15:00,
2013-01-25 16:20:00,52.0,37.2,29.51,North,357,13.0,20.0,57,0.00,OVC,,0.00,107.0,WeatherDisplay:10.37,2013-01-25 15:20:00,
2013-01-25 16:30:00,51.9,37.1,29.52,North,360,14.0,23.0,57,0.00,OVC,,0.00,79.0,WeatherDisplay:10.37,2013-01-25 15:30:00,
2013-01-25 16:35:00,51.9,37.6,29.52,North,355,12.0,20.0,58,0.00,OVC,,0.00,67.0,WeatherDisplay:10.37,2013-01-25 15:35:00,
2013-01-25 16:40:00,51.7,37.4,29.52,North,358,10.0,20.0,58,0.00,OVC,,0.00,56.0,WeatherDisplay:10.37,2013-01-25 15:40:00,
2013-01-25 16:45:00,51.5,37.2,29.52,North,5,13.0,22.0,58,0.00,OVC,,0.00,46.0,WeatherDisplay:10.37,2013-01-25 15:45:00,
2013-01-25 16:50:00,51.4,37.1,29.52,North,2,14.0,21.0,58,0.00,OVC,,0.00,35.0,WeatherDisplay:10.37,2013-01-25 15:50:00,
2013-01-25 16:55:00,51.2,36.9,29.52,North,358,14.0,26.0,58,0.00,OVC,,0.00,16.0,WeatherDisplay:10.37,2013-01-25 15:55:00,
2013-01-25 17:00:00,50.9,37.1,29.53,North,3,15.0,26.0,59,0.00,OVC,,0.00,12.0,WeatherDisplay:10.37,2013-01-25 16:00:00,
2013-01-25 17:05:00,50.7,36.9,29.53,North,2,13.0,20.0,59,0.00,OVC,,0.00,11.0,WeatherDisplay:10.37,2013-01-25 16:05:00,
2013-01-25 17:10:00,50.5,37.1,29.53,North,6,13.0,22.0,60,0.00,OVC,,0.00,7.0,WeatherDisplay:10.37,2013-01-25 16:10:00,
2013-01-25 17:15:00,50.4,37.0,29.53,North,7,9.0,18.0,60,0.00,OVC,,0.00,5.0,WeatherDisplay:10.37,2013-01-25 16:15:00,
2013-01-25 17:20:00,50.2,36.8,29.53,North,4,10.0,19.0,60,0.00,OVC,,0.00,0.0,WeatherDisplay:10.37,2013-01-25 16:20:00,
2013-01-25 17:25:00,50.0,37.0,29.54,North,4,7.0,13.0,61,0.00,OVC,,0.00,0.0,WeatherDisplay:10.37,2013-01-25 16:25:00,
2013-01-25 17:30:00,49.8,36.8,29.54,North,359,8.0,14.0,61,0.00,OVC,,0.00,0.0,WeatherDisplay:10.37,2013-01-25 16:30:00,
2013-01-25 17:35:00,49.6,37.1,29.54,NNW,347,10.0,18.0,62,0.00,OVC,,0.00,0.0,WeatherDisplay:10.37,2013-01-25 16:35:00,
2013-01-25 17:40:00,49.4,36.9,29.54,NNW,348,10.0,15.0,62,0.00,OVC,,0.00,0.0,WeatherDisplay:10.37,2013-01-25 16:40:00,
2013-01-25 17:50:00,48.9,36.9,29.55,North,359,5.0,18.0,63,0.00,,,0.00,0.0,WeatherDisplay:10.37,2013-01-25 16:50:00,
2013-01-25 17:55:00,48.7,37.1,29.55,North,358,12.0,16.0,64,0.00,,,0.00,0.0,WeatherDisplay:10.37,2013-01-25 16:55:00,
2013-01-25 18:00:00,48.6,37.0,29.55,North,6,12.0,20.0,64,0.00,,,0.00,0.0,WeatherDisplay:10.37,2013-01-25 17:00:00,
2013-01-25 18:05:00,48.5,36.9,29.55,North,5,9.0,20.0,64,0.00,,,0.00,0.0,WeatherDisplay:10.37,2013-01-25 17:05:00,
2013-01-25 18:10:00,48.3,36.7,29.55,North,9,9.0,20.0,64,0.00,,,0.00,0.0,WeatherDisplay:10.37,2013-01-25 17:10:00,
2013-01-25 18:15:00,48.2,36.6,29.55,North,6,10.0,20.0,64,0.00,,,0.00,0.0,WeatherDisplay:10.37,2013-01-25 17:15:00,
2013-01-25 18:20:00,48.0,36.4,29.56,North,360,10.0,17.0,64,0.00,,,0.00,0.0,WeatherDisplay:10.37,2013-01-25 17:20:00,
2013-01-25 18:25:00,47.9,36.3,29.56,North,1,9.0,20.0,64,0.00,,,0.00,0.0,WeatherDisplay:10.37,2013-01-25 17:25:00,
2013-01-25 18:30:00,47.8,36.2,29.56,North,4,8.0,16.0,64,0.00,,,0.00,0.0,WeatherDisplay:10.37,2013-01-25 17:30:00,
2013-01-25 18:35:00,47.8,36.2,29.56,North,6,10.0,20.0,64,0.00,,,0.00,0.0,WeatherDisplay:10.37,2013-01-25 17:35:00,
2013-01-25 18:40:00,47.8,36.2,29.56,North,7,10.0,15.0,64,0.00,,,0.00,0.0,WeatherDisplay:10.37,2013-01-25 17:40:00,
2013-01-25 18:45:00,47.7,36.1,29.56,North,2,9.0,14.0,64,0.00,,,0.00,0.0,WeatherDisplay:10.37,2013-01-25 17:45:00,
2013-01-25 18:50:00,47.7,36.1,29.56,North,8,7.0,15.0,64,0.00,,,0.00,0.0,WeatherDisplay:10.37,2013-01-25 17:50:00,
2013-01-25 18:55:00,47.7,36.1,29.56,NNE,12,9.0,14.0,64,0.00,,,0.00,0.0,WeatherDisplay:10.37,2013-01-25 17:55:00,
2013-01-25 19:00:00,47.7,35.7,29.56,NNE,18,9.0,16.0,63,0.00,,,0.00,0.0,WeatherDisplay:10.37,2013-01-25 18:00:00,
2013-01-25 19:05:00,47.6,35.6,29.57,NNE,16,9.0,16.0,63,0.00,,,0.00,0.0,WeatherDisplay:10.37,2013-01-25 18:05:00,
2013-01-25 19:10:00,47.6,35.6,29.57,North,9,9.0,17.0,63,0.00,,,0.00,0.0,WeatherDisplay:10.37,2013-01-25 18:10:00,
2013-01-25 19:15:00,47.5,35.5,29.57,North,5,9.0,15.0,63,0.00,,,0.00,0.0,WeatherDisplay:10.37,2013-01-25 18:15:00,
2013-01-25 19:20:00,47.4,35.4,29.57,North,3,10.0,14.0,63,0.00,,,0.00,0.0,WeatherDisplay:10.37,2013-01-25 18:20:00,
2013-01-25 19:25:00,47.3,35.3,29.58,North,359,12.0,20.0,63,0.00,,,0.00,0.0,WeatherDisplay:10.37,2013-01-25 18:25:00,
2013-01-25 19:30:00,47.2,35.2,29.58,North,357,10.0,20.0,63,0.00,,,0.00,0.0,WeatherDisplay:10.37,2013-01-25 18:30:00,
2013-01-25 19:35:00,47.1,34.8,29.58,North,1,8.0,18.0,62,0.00,,,0.00,0.0,WeatherDisplay:10.37,2013-01-25 18:35:00,
2013-01-25 19:40:00,47.0,35.0,29.58,North,5,9.0,17.0,63,0.00,,,0.00,0.0,WeatherDisplay:10.37,2013-01-25 18:40:00,
2013-01-25 19:50:00,46.9,34.6,29.58,North,10,9.0,15.0,62,0.00,,,0.00,0.0,WeatherDisplay:10.37,2013-01-25 18:50:00,
2013-01-25 19:55:00,46.9,34.9,29.58,North,5,9.0,18.0,63,0.00,,,0.00,0.0,WeatherDisplay:10.37,2013-01-25 18:55:00,
2013-01-25 20:00:00,46.7,34.8,29.59,North,1,12.0,20.0,63,0.00,,,0.00,0.0,WeatherDisplay:10.37,2013-01-25 19:00:00,
2013-01-25 20:05:00,46.7,34.7,29.59,North,2,12.0,18.0,63,0.00,,,0.00,0.0,WeatherDisplay:10.37,2013-01-25 19:05:00,
2013-01-25 20:10:00,46.6,34.7,29.59,North,0,10.0,16.0,63,0.00,,,0.00,0.0,WeatherDisplay:10.37,2013-01-25 19:10:00,
2013-01-25 20:15:00,46.4,34.5,29.59,North,1,9.0,18.0,63,0.00,,,0.00,0.0,WeatherDisplay:10.37,2013-01-25 19:15:00,
2013-01-25 20:20:00,46.3,34.4,29.59,North,360,6.0,16.0,63,0.00,,,0.00,0.0,WeatherDisplay:10.37,2013-01-25 19:20:00,
2013-01-25 20:25:00,46.2,34.3,29.59,North,8,9.0,16.0,63,0.00,,,0.00,0.0,WeatherDisplay:10.37,2013-01-25 19:25:00,
2013-01-25 20:30:00,46.1,34.2,29.59,NNE,16,10.0,16.0,63,0.00,,,0.00,0.0,WeatherDisplay:10.37,2013-01-25 19:30:00,
2013-01-25 20:35:00,46.0,34.1,29.60,North,9,9.0,15.0,63,0.00,,,0.00,0.0,WeatherDisplay:10.37,2013-01-25 19:35:00,
2013-01-25 20:40:00,46.0,34.1,29.60,North,8,9.0,16.0,63,0.00,,,0.00,0.0,WeatherDisplay:10.37,2013-01-25 19:40:00,
2013-01-25 20:45:00,45.9,34.0,29.60,NNE,14,10.0,16.0,63,0.00,,,0.00,0.0,WeatherDisplay:10.37,2013-01-25 19:45:00,
2013-01-25 20:50:00,45.8,33.9,29.60,NNE,17,10.0,18.0,63,0.00,,,0.00,0.0,WeatherDisplay:10.37,2013-01-25 19:50:00,
2013-01-25 20:55:00,45.7,34.2,29.60,North,3,9.0,17.0,64,0.00,,,0.00,0.0,WeatherDisplay:10.37,2013-01-25 19:55:00,
2013-01-25 21:00:00,45.6,34.2,29.60,North,4,12.0,20.0,64,0.00,,,0.00,0.0,WeatherDisplay:10.37,2013-01-25 20:00:00,
2013-01-25 21:10:00,45.5,34.1,29.60,NNE,19,10.0,17.0,64,0.00,,,0.00,0.0,WeatherDisplay:10.37,2013-01-25 20:10:00,
2013-01-25 21:20:00,45.5,34.0,29.61,North,10,10.0,17.0,64,0.00,,,0.00,0.0,WeatherDisplay:10.37,2013-01-25 20:20:00,
2013-01-25 21:25:00,45.4,33.9,29.61,North,4,9.0,18.0,64,0.00,,,0.00,0.0,WeatherDisplay:10.37,2013-01-25 20:25:00,
2013-01-25 21:30:00,45.4,33.9,29.61,North,6,9.0,18.0,64,0.00,,,0.00,0.0,WeatherDisplay:10.37,2013-01-25 20:30:00,
2013-01-25 21:35:00,45.3,33.9,29.61,North,7,8.0,20.0,64,0.00,,,0.00,0.0,WeatherDisplay:10.37,2013-01-25 20:35:00,
2013-01-25 21:40:00,45.3,33.8,29.61,NNE,12,9.0,15.0,64,0.00,,,0.00,0.0,WeatherDisplay:10.37,2013-01-25 20:40:00,
2013-01-25 21:50:00,45.1,33.6,29.61,NNE,17,10.0,16.0,64,0.00,,,0.00,0.0,WeatherDisplay:10.37,2013-01-25 20:50:00,
2013-01-25 21:55:00,45.1,33.6,29.61,NNE,22,12.0,15.0,64,0.00,,,0.00,0.0,WeatherDisplay:10.37,2013-01-25 20:55:00,
2013-01-25 22:00:00,45.2,33.7,29.61,NNE,16,8.0,15.0,64,0.00,,,0.00,0.0,WeatherDisplay:10.37,2013-01-25 21:00:00,
2013-01-25 22:05:00,45.2,33.7,29.61,NNE,19,9.0,16.0,64,0.00,CLR,,0.00,0.0,WeatherDisplay:10.37,2013-01-25 21:05:00,
2013-01-25 22:10:00,45.2,33.7,29.61,NNE,28,9.0,16.0,64,0.00,CLR,,0.00,0.0,WeatherDisplay:10.37,2013-01-25 21:10:00,
2013-01-25 22:15:00,45.2,33.7,29.61,NNE,21,8.0,16.0,64,0.00,CLR,,0.00,0.0,WeatherDisplay:10.37,2013-01-25 21:15:00,
2013-01-25 22:20:00,45.3,33.8,29.61,North,11,7.0,14.0,64,0.00,CLR,,0.00,0.0,WeatherDisplay:10.37,2013-01-25 21:20:00,
2013-01-25 22:25:00,45.2,33.7,29.61,North,9,7.0,12.0,64,0.00,CLR,,0.00,0.0,WeatherDisplay:10.37,2013-01-25 21:25:00,
2013-01-25 22:30:00,45.1,33.6,29.61,North,8,8.0,12.0,64,0.00,CLR,,0.00,0.0,WeatherDisplay:10.37,2013-01-25 21:30:00,
2013-01-25 22:40:00,45.0,33.6,29.62,North,353,7.0,12.0,64,0.00,CLR,,0.00,0.0,WeatherDisplay:10.37,2013-01-25 21:40:00,
2013-01-25 22:45:00,45.0,33.9,29.62,North,355,7.0,13.0,65,0.00,CLR,,0.00,0.0,WeatherDisplay:10.37,2013-01-25 21:45:00,
2013-01-25 22:50:00,44.9,33.9,29.62,North,0,10.0,16.0,65,0.00,CLR,,0.00,0.0,WeatherDisplay:10.37,2013-01-25 21:50:00,
2013-01-25 22:55:00,44.9,33.8,29.62,North,7,8.0,15.0,65,0.00,CLR,,0.00,0.0,WeatherDisplay:10.37,2013-01-25 21:55:00,
2013-01-25 23:00:00,44.8,33.7,29.61,North,11,7.0,12.0,65,0.00,CLR,,0.00,0.0,WeatherDisplay:10.37,2013-01-25 22:00:00,
2013-01-25 23:05:00,44.7,33.6,29.62,North,11,7.0,12.0,65,0.00,,,0.00,0.0,WeatherDisplay:10.37,2013-01-25 22:05:00,
2013-01-25 23:10:00,44.6,33.6,29.62,North,4,6.0,12.0,65,0.00,,,0.00,0.0,WeatherDisplay:10.37,2013-01-25 22:10:00,
2013-01-25 23:15:00,44.5,33.8,29.62,North,8,8.0,13.0,66,0.00,,,0.00,0.0,WeatherDisplay:10.37,2013-01-25 22:15:00,
2013-01-25 23:20:00,44.4,33.8,29.62,North,10,8.0,13.0,66,0.00,,,0.00,0.0,WeatherDisplay:10.37,2013-01-25 22:20:00,
2013-01-25 23:25:00,44.3,33.7,29.62,NNE,18,9.0,16.0,66,0.00,,,0.00,0.0,WeatherDisplay:10.37,2013-01-25 22:25:00,
2013-01-25 23:30:00,44.3,33.7,29.62,NNE,23,6.0,16.0,66,0.00,,,0.00,0.0,WeatherDisplay:10.37,2013-01-25 22:30:00,
2013-01-25 23:35:00,44.2,33.9,29.63,NNE,15,8.0,16.0,67,0.00,,,0.00,0.0,WeatherDisplay:10.37,2013-01-25 22:35:00,
2013-01-25 23:40:00,44.2,33.9,29.63,NNE,14,10.0,14.0,67,0.00,,,0.00,0.0,WeatherDisplay:10.37,2013-01-25 22:40:00,
2013-01-25 23:50:00,44.0,33.8,29.63,NNE,19,7.0,13.0,67,0.00,,,0.00,0.0,WeatherDisplay:10.37,2013-01-25 22:50:00,
2013-01-25 23:55:00,44.0,34.1,29.63,NNE,16,8.0,13.0,68,0.00,,,0.00,0.0,WeatherDisplay:10.37,2013-01-25 22:55:00,